createdAt,value
2018-12-22T00:00:42.775Z,1.60
2018-12-22T00:03:11.273Z,2.83
2018-12-22T00:05:39.706Z,0.83
2018-12-22T00:08:08.212Z,1.17
2018-12-22T00:10:37.181Z,0.77
2018-12-22T00:13:06.076Z,0.87
2018-12-22T00:15:34.621Z,2.90
2018-12-22T00:18:03.055Z,1.00
2018-12-22T00:20:31.480Z,0.90
2018-12-22T00:22:59.913Z,0.73
2018-12-22T00:25:28.309Z,1.50
2018-12-22T00:27:57.127Z,1.67
2018-12-22T00:30:25.548Z,2.97
2018-12-22T00:32:53.941Z,0.60
2018-12-22T00:35:22.600Z,4.20
2018-12-22T00:37:51.066Z,3.37
2018-12-22T00:40:19.485Z,1.83
2018-12-22T00:42:48.035Z,0.87
2018-12-22T00:45:16.423Z,2.17
2018-12-22T00:47:44.841Z,0.77
2018-12-22T00:50:13.337Z,1.10
2018-12-22T00:52:41.764Z,0.70
2018-12-22T00:55:10.174Z,0.60
2018-12-22T00:57:38.636Z,3.10
2018-12-22T01:00:08.641Z,1.53
2018-12-22T01:02:37.104Z,1.27
2018-12-22T01:05:05.902Z,1.80
2018-12-22T01:07:34.310Z,0.80
2018-12-22T01:10:02.853Z,2.80
2018-12-22T01:12:31.282Z,3.03
2018-12-22T01:14:59.699Z,0.77
2018-12-22T01:17:28.107Z,2.70
2018-12-22T01:19:56.552Z,1.00
2018-12-22T01:22:24.989Z,0.97
2018-12-22T01:24:53.387Z,2.60
2018-12-22T01:27:21.822Z,1.73
2018-12-22T01:29:50.228Z,3.60
2018-12-22T01:32:18.654Z,3.27
2018-12-22T01:34:47.095Z,4.97
2018-12-22T01:37:15.501Z,1.30
2018-12-22T01:39:43.993Z,2.67
2018-12-22T01:42:12.554Z,1.90
2018-12-22T01:44:40.936Z,1.20
2018-12-22T01:47:09.363Z,0.50
2018-12-22T01:49:37.869Z,3.53
2018-12-22T01:52:06.325Z,1.00
2018-12-22T01:54:34.801Z,2.87
2018-12-22T01:57:03.230Z,4.57
2018-12-22T01:59:31.656Z,4.10
2018-12-22T02:02:00.051Z,1.03
2018-12-22T02:04:28.465Z,1.67
2018-12-22T02:06:57.359Z,2.33
2018-12-22T02:09:25.769Z,1.17
2018-12-22T02:11:54.221Z,1.23
2018-12-22T02:14:22.626Z,2.90
2018-12-22T02:16:51.060Z,0.77
2018-12-22T02:19:20.388Z,1.23
2018-12-22T02:21:48.808Z,1.00
2018-12-22T02:24:17.220Z,2.50
2018-12-22T02:26:45.871Z,2.67
2018-12-22T02:29:14.296Z,0.50
2018-12-22T02:31:42.687Z,1.33
2018-12-22T02:34:11.121Z,1.57
2018-12-22T02:36:39.502Z,3.73
2018-12-22T02:39:07.923Z,1.60
2018-12-22T02:41:36.489Z,2.30
2018-12-22T02:44:05.062Z,3.73
2018-12-22T02:46:33.461Z,0.87
2018-12-22T02:49:01.922Z,2.17
2018-12-22T02:51:30.457Z,2.63
2018-12-22T02:53:58.866Z,1.60
2018-12-22T02:56:27.257Z,1.10
2018-12-22T02:58:55.764Z,5.50
2018-12-22T03:01:24.282Z,2.83
2018-12-22T03:03:52.694Z,2.03
2018-12-22T03:06:21.143Z,2.63
2018-12-22T03:08:49.532Z,2.37
2018-12-22T03:11:17.949Z,3.33
2018-12-22T03:13:46.388Z,3.93
2018-12-22T03:16:14.781Z,2.10
2018-12-22T03:18:43.238Z,3.47
2018-12-22T03:21:11.704Z,2.43
2018-12-22T03:23:40.156Z,2.70
2018-12-22T03:26:08.569Z,4.23
2018-12-22T03:28:37.021Z,3.63
2018-12-22T03:31:05.433Z,4.67
2018-12-22T03:33:33.853Z,3.63
2018-12-22T03:36:02.325Z,3.13
2018-12-22T03:38:30.738Z,4.53
2018-12-22T03:40:59.131Z,3.73
2018-12-22T03:43:27.675Z,6.20
2018-12-22T03:45:56.084Z,3.87
2018-12-22T03:48:24.483Z,3.57
2018-12-22T03:50:52.908Z,7.23
2018-12-22T03:53:22.182Z,5.57
2018-12-22T03:55:50.585Z,4.73
2018-12-22T03:58:19.024Z,4.63
2018-12-22T04:00:47.432Z,5.10
2018-12-22T04:03:15.829Z,5.83
2018-12-22T04:05:44.270Z,5.23
2018-12-22T04:08:12.664Z,7.13
2018-12-22T04:10:41.053Z,6.40
2018-12-22T04:13:09.499Z,6.03
2018-12-22T04:15:38.056Z,5.47
2018-12-22T04:18:06.460Z,4.40
2018-12-22T04:20:34.941Z,2.80
2018-12-22T04:23:03.379Z,6.57
2018-12-22T04:25:31.790Z,4.20
2018-12-22T04:28:00.237Z,3.67
2018-12-22T04:30:28.649Z,3.80
2018-12-22T04:32:57.215Z,6.33
2018-12-22T04:35:26.909Z,3.10
2018-12-22T04:37:55.389Z,5.60
2018-12-22T04:40:23.813Z,4.30
2018-12-22T04:42:52.705Z,4.50
2018-12-22T04:45:21.135Z,6.83
2018-12-22T04:47:49.718Z,4.43
2018-12-22T04:50:18.469Z,6.40
2018-12-22T04:52:46.917Z,5.73
2018-12-22T04:55:15.467Z,7.83
2018-12-22T04:57:44.001Z,5.10
2018-12-22T05:00:13.044Z,3.83
2018-12-22T05:02:41.544Z,8.03
2018-12-22T05:05:10.052Z,7.80
2018-12-22T05:07:38.568Z,6.27
2018-12-22T05:10:08.245Z,7.17
2018-12-22T05:12:36.797Z,5.37
2018-12-22T05:15:06.274Z,6.27
2018-12-22T05:17:35.823Z,5.07
2018-12-22T05:20:05.016Z,5.87
2018-12-22T05:22:33.461Z,3.40
2018-12-22T05:25:01.842Z,4.87
2018-12-22T05:27:30.277Z,8.00
2018-12-22T05:29:58.705Z,5.03
2018-12-22T05:32:27.133Z,3.57
2018-12-22T05:34:55.577Z,4.80
2018-12-22T05:37:24.189Z,4.90
2018-12-22T05:39:52.610Z,6.57
2018-12-22T05:42:21.062Z,4.27
2018-12-22T05:44:49.513Z,5.83
2018-12-22T05:47:17.929Z,2.67
2018-12-22T05:49:46.321Z,3.23
2018-12-22T05:52:14.827Z,5.43
2018-12-22T05:54:43.215Z,4.37
2018-12-22T05:57:11.634Z,4.77
2018-12-22T05:59:40.053Z,6.10
2018-12-22T06:02:08.525Z,9.47
2018-12-22T06:04:36.953Z,9.13
2018-12-22T06:07:05.433Z,7.30
2018-12-22T06:09:33.881Z,10.47
2018-12-22T06:12:02.392Z,9.03
2018-12-22T06:14:30.952Z,7.40
2018-12-22T06:16:59.493Z,10.10
2018-12-22T06:19:28.877Z,7.07
2018-12-22T06:21:57.476Z,7.43
2018-12-22T06:24:25.993Z,7.87
2018-12-22T06:26:54.581Z,10.50
2018-12-22T06:29:23.496Z,7.50
2018-12-22T06:31:51.895Z,7.77
2018-12-22T06:34:20.356Z,7.03
2018-12-22T06:36:48.769Z,10.20
2018-12-22T06:39:17.513Z,10.00
2018-12-22T06:41:45.969Z,14.63
2018-12-22T06:44:14.406Z,11.27
2018-12-22T06:46:42.837Z,10.97
2018-12-22T06:49:11.341Z,8.87
2018-12-22T06:51:39.914Z,7.87
2018-12-22T06:54:08.329Z,12.00
2018-12-22T06:56:36.862Z,11.70
2018-12-22T06:59:05.329Z,8.40
2018-12-22T07:01:34.390Z,8.10
2018-12-22T07:04:04.991Z,8.23
2018-12-22T07:06:34.026Z,12.83
2018-12-22T07:09:02.618Z,14.17
2018-12-22T07:11:32.156Z,11.13
2018-12-22T07:14:00.711Z,16.30
2018-12-22T07:16:29.849Z,11.10
2018-12-22T07:18:58.305Z,9.33
2018-12-22T07:21:26.805Z,10.13
2018-12-22T07:23:55.296Z,10.47
2018-12-22T07:26:23.877Z,14.33
2018-12-22T07:28:52.399Z,15.60
2018-12-22T07:31:20.919Z,11.20
2018-12-22T07:33:49.529Z,9.10
2018-12-22T07:36:18.349Z,16.73
2018-12-22T07:38:46.842Z,17.93
2018-12-22T07:41:15.299Z,16.07
2018-12-22T07:43:43.832Z,18.07
2018-12-22T07:46:12.344Z,17.73
2018-12-22T07:48:40.922Z,13.90
2018-12-22T07:51:09.758Z,16.17
2018-12-22T07:53:38.441Z,17.67
2018-12-22T07:56:06.952Z,14.07
2018-12-22T07:58:35.659Z,10.13
2018-12-22T08:01:04.466Z,11.37
2018-12-22T08:03:33.162Z,11.93
2018-12-22T08:06:03.071Z,14.63
2018-12-22T08:08:31.839Z,11.73
2018-12-22T08:11:00.433Z,10.63
2018-12-22T08:13:29.311Z,11.23
2018-12-22T08:15:58.148Z,15.87
2018-12-22T08:18:26.735Z,13.63
2018-12-22T08:20:55.409Z,14.83
2018-12-22T08:23:23.944Z,17.97
2018-12-22T08:25:52.557Z,14.90
2018-12-22T08:28:21.106Z,17.73
2018-12-22T08:30:49.748Z,20.57
2018-12-22T08:33:18.562Z,11.87
2018-12-22T08:35:47.641Z,11.83
2018-12-22T08:38:16.257Z,11.77
2018-12-22T08:40:44.812Z,13.37
2018-12-22T08:43:13.491Z,12.93
2018-12-22T08:45:42.136Z,10.83
2018-12-22T08:48:10.759Z,10.23
2018-12-22T08:50:39.906Z,15.20
2018-12-22T08:53:08.419Z,11.57
2018-12-22T08:55:37.073Z,15.20
2018-12-22T08:58:06.466Z,12.50
2018-12-22T09:00:35.215Z,14.63
2018-12-22T09:03:04.316Z,12.50
2018-12-22T09:05:33.609Z,14.93
2018-12-22T09:08:02.152Z,11.67
2018-12-22T09:12:52.453Z,16.37
2018-12-22T09:15:20.951Z,25.20
2018-12-22T09:17:49.687Z,21.90
2018-12-22T09:20:21.232Z,12.77
2018-12-22T09:22:49.813Z,21.67
2018-12-22T09:25:18.530Z,22.33
2018-12-22T09:27:47.253Z,27.00
2018-12-22T09:30:16.377Z,46.10
2018-12-22T09:32:44.997Z,37.33
2018-12-22T09:35:13.693Z,72.47
2018-12-22T09:37:42.368Z,53.17
2018-12-22T09:40:10.971Z,33.27
2018-12-22T09:42:39.471Z,14.37
2018-12-22T09:45:08.892Z,18.17
2018-12-22T09:47:37.442Z,18.80
2018-12-22T09:50:10.707Z,17.93
2018-12-22T09:52:39.270Z,26.87
2018-12-22T09:55:08.750Z,20.97
2018-12-22T09:57:37.900Z,19.27
2018-12-22T10:00:10.101Z,17.93
2018-12-22T10:02:38.667Z,25.03
2018-12-22T10:05:07.742Z,26.77
2018-12-22T10:07:36.256Z,19.63
2018-12-22T10:10:07.629Z,29.20
2018-12-22T10:12:36.072Z,31.00
2018-12-22T10:15:05.344Z,20.17
2018-12-22T10:17:33.787Z,18.33
2018-12-22T10:20:02.308Z,16.73
2018-12-22T10:22:30.735Z,15.47
2018-12-22T10:24:59.225Z,16.23
2018-12-22T10:27:27.807Z,16.00
2018-12-22T10:29:56.236Z,10.93
2018-12-22T10:32:24.690Z,7.00
2018-12-22T10:34:53.219Z,6.33
2018-12-22T10:37:21.700Z,6.33
2018-12-22T10:39:50.252Z,8.57
2018-12-22T10:42:19.187Z,6.57
2018-12-22T10:44:47.644Z,6.20
2018-12-22T10:47:16.214Z,6.13
2018-12-22T10:49:45.015Z,5.57
2018-12-22T10:52:13.471Z,3.77
2018-12-22T10:54:42.370Z,5.50
2018-12-22T10:57:11.086Z,5.17
2018-12-22T10:59:39.817Z,7.43
2018-12-22T11:02:08.311Z,9.80
2018-12-22T11:04:36.725Z,7.77
2018-12-22T11:07:05.224Z,5.83
2018-12-22T11:09:33.759Z,6.70
2018-12-22T11:12:02.280Z,7.67
2018-12-22T11:14:31.182Z,11.57
2018-12-22T11:16:59.841Z,10.00
2018-12-22T11:19:28.369Z,8.07
2018-12-22T11:21:56.799Z,6.40
2018-12-22T11:24:25.412Z,6.20
2018-12-22T11:26:53.907Z,6.10
2018-12-22T11:29:22.538Z,7.80
2018-12-22T11:31:51.365Z,5.67
2018-12-22T11:34:19.897Z,5.97
2018-12-22T11:36:48.328Z,5.07
2018-12-22T11:39:17.394Z,6.90
2018-12-22T11:41:45.987Z,5.30
2018-12-22T11:44:14.558Z,6.57
2018-12-22T11:46:43.165Z,7.07
2018-12-22T11:49:35.232Z,8.47
2018-12-22T11:52:03.985Z,7.57
2018-12-22T11:54:33.680Z,7.77
2018-12-22T11:57:06.084Z,7.73
2018-12-22T11:59:34.632Z,6.63
2018-12-22T12:02:09.571Z,6.67
2018-12-22T12:04:33.819Z,7.33
2018-12-22T12:07:02.417Z,8.43
2018-12-22T12:09:31.963Z,9.17
2018-12-22T12:12:00.482Z,8.67
2018-12-22T12:14:30.376Z,8.87
2018-12-22T12:17:11.379Z,8.73
2018-12-22T12:19:39.896Z,7.43
2018-12-22T12:22:08.406Z,9.47
2018-12-22T12:24:36.997Z,8.97
2018-12-22T12:27:05.568Z,9.60
2018-12-22T12:29:33.997Z,9.40
2018-12-22T12:32:02.697Z,6.30
2018-12-22T12:34:31.717Z,9.67
2018-12-22T12:37:00.294Z,6.60
2018-12-22T12:39:28.884Z,8.53
2018-12-22T12:41:57.857Z,7.07
2018-12-22T12:44:26.425Z,7.57
2018-12-22T12:46:55.516Z,7.90
2018-12-22T12:49:24.702Z,6.63
2018-12-22T12:51:53.176Z,7.17
2018-12-22T12:54:22.281Z,9.83
2018-12-22T12:56:54.082Z,6.23
2018-12-22T12:59:23.164Z,7.07
2018-12-22T13:02:00.672Z,8.00
2018-12-22T13:04:22.430Z,7.50
2018-12-22T13:06:50.910Z,7.43
2018-12-22T13:09:19.399Z,6.50
2018-12-22T13:11:48.849Z,5.70
2018-12-22T13:14:20.517Z,6.53
2018-12-22T13:16:49.120Z,8.27
2018-12-22T13:19:17.691Z,8.50
2018-12-22T13:21:54.021Z,8.40
2018-12-22T13:24:22.586Z,7.70
2018-12-22T13:26:51.066Z,6.33
2018-12-22T13:29:19.818Z,8.63
2018-12-22T13:31:48.350Z,7.73
2018-12-22T13:34:16.886Z,6.73
2018-12-22T13:36:45.598Z,6.83
2018-12-22T13:39:17.493Z,9.70
2018-12-22T13:41:46.207Z,6.97
2018-12-22T13:44:14.637Z,6.20
2018-12-22T13:46:43.225Z,6.63
2018-12-22T13:49:11.694Z,7.57
2018-12-22T13:51:42.434Z,7.53
2018-12-22T13:54:11.064Z,8.30
2018-12-22T13:56:39.638Z,5.67
2018-12-22T13:59:08.152Z,6.50
2018-12-22T14:01:40.467Z,6.53
2018-12-22T14:04:09.259Z,10.77
2018-12-22T14:06:42.035Z,8.33
2018-12-22T14:09:11.303Z,10.37
2018-12-22T14:11:40.624Z,9.30
2018-12-22T14:14:10.985Z,9.80
2018-12-22T14:16:53.989Z,9.50
2018-12-22T14:19:23.284Z,9.03
2018-12-22T14:21:52.333Z,8.40
2018-12-22T14:24:53.604Z,8.93
2018-12-22T14:27:22.407Z,8.87
2018-12-22T14:29:54.373Z,8.40
2018-12-22T14:32:26.977Z,9.33
2018-12-22T14:35:09.203Z,8.23
2018-12-22T14:37:37.855Z,14.10
2018-12-22T14:40:07.626Z,10.57
2018-12-22T14:42:36.769Z,13.20
2018-12-22T14:45:07.745Z,12.23
2018-12-22T14:47:36.257Z,15.70
2018-12-22T14:50:05.615Z,12.20
2018-12-22T14:52:34.134Z,12.87
2018-12-22T14:55:02.748Z,9.63
2018-12-22T14:57:35.847Z,12.07
2018-12-22T15:00:05.152Z,14.47
2018-12-22T15:02:35.443Z,12.67
2018-12-22T15:05:05.084Z,16.33
2018-12-22T15:07:33.574Z,17.37
2018-12-22T15:10:02.074Z,17.10
2018-12-22T15:12:31.448Z,18.33
2018-12-22T15:15:00.514Z,15.20
2018-12-22T15:17:28.949Z,17.00
2018-12-22T15:19:57.515Z,21.20
2018-12-22T15:22:25.993Z,20.63
2018-12-22T15:24:54.524Z,20.00
2018-12-22T15:27:22.957Z,20.80
2018-12-22T15:29:51.375Z,24.93
2018-12-22T15:32:19.959Z,23.17
2018-12-22T15:34:48.395Z,28.53
2018-12-22T15:37:16.863Z,23.23
2018-12-22T15:39:45.389Z,30.90
2018-12-22T15:42:13.922Z,27.70
2018-12-22T15:44:42.483Z,26.90
2018-12-22T15:47:11.031Z,33.83
2018-12-22T15:49:39.513Z,31.20
2018-12-22T15:52:08.550Z,33.20
2018-12-22T15:54:36.979Z,86.20
2018-12-22T15:57:05.425Z,113.67
2018-12-22T15:59:33.888Z,136.13
2018-12-22T16:02:03.833Z,67.97
2018-12-22T16:04:32.237Z,94.53
2018-12-22T16:07:00.678Z,69.00
2018-12-22T16:09:29.277Z,112.73
2018-12-22T16:11:57.738Z,53.47
2018-12-22T16:14:26.178Z,44.47
2018-12-22T16:16:54.626Z,48.53
2018-12-22T16:19:23.080Z,60.40
2018-12-22T16:21:51.566Z,46.83
2018-12-22T16:24:19.982Z,57.90
2018-12-22T16:26:48.420Z,53.53
2018-12-22T16:29:29.790Z,82.90
2018-12-22T16:31:58.211Z,81.77
2018-12-22T16:34:26.713Z,272.80
2018-12-22T16:36:55.199Z,79.60
2018-12-22T16:39:23.640Z,191.77
2018-12-22T16:41:52.584Z,51.50
2018-12-22T16:44:21.043Z,72.57
2018-12-22T16:46:49.581Z,98.47
2018-12-22T16:49:18.045Z,57.63
2018-12-22T16:51:46.465Z,32.30
2018-12-22T16:54:14.892Z,28.63
2018-12-22T16:56:43.452Z,34.83
2018-12-22T16:59:11.922Z,29.90
2018-12-22T17:01:52.261Z,24.50
2018-12-22T17:04:20.991Z,18.87
2018-12-22T17:06:49.557Z,18.67
2018-12-22T17:09:18.093Z,55.93
2018-12-22T17:11:46.521Z,30.00
2018-12-22T17:14:14.924Z,51.10
2018-12-22T17:16:44.128Z,51.90
2018-12-22T17:19:12.540Z,28.67
2018-12-22T17:22:05.833Z,23.03
2018-12-22T17:24:58.036Z,55.27
2018-12-22T17:27:26.457Z,19.93
2018-12-22T17:29:54.900Z,61.50
2018-12-22T17:32:23.316Z,44.13
2018-12-22T17:34:51.778Z,28.73
2018-12-22T17:37:20.210Z,26.77
2018-12-22T17:39:53.371Z,24.97
2018-12-22T17:42:20.794Z,56.13
2018-12-22T17:44:49.524Z,51.97
2018-12-22T17:47:17.911Z,15.33
2018-12-22T17:49:46.311Z,21.60
2018-12-22T17:52:14.733Z,121.77
2018-12-22T17:54:43.159Z,22.23
2018-12-22T17:57:11.597Z,39.87
2018-12-22T17:59:40.034Z,23.57
2018-12-22T18:02:08.582Z,17.17
2018-12-22T18:04:37.021Z,15.90
2018-12-22T18:07:05.454Z,17.07
2018-12-22T18:09:33.986Z,14.17
2018-12-22T18:12:02.387Z,17.47
2018-12-22T18:14:30.828Z,21.20
2018-12-22T18:16:59.385Z,19.87
2018-12-22T18:19:29.161Z,19.20
2018-12-22T18:21:57.877Z,14.77
2018-12-22T18:24:26.290Z,15.73
2018-12-22T18:26:54.720Z,15.27
2018-12-22T18:29:23.609Z,14.10
2018-12-22T18:31:52.044Z,15.67
2018-12-22T18:34:20.467Z,14.67
2018-12-22T18:36:48.893Z,15.13
2018-12-22T18:39:17.713Z,16.27
2018-12-22T18:41:46.332Z,18.87
2018-12-22T18:44:14.854Z,18.57
2018-12-22T18:46:43.305Z,17.60
2018-12-22T18:49:11.712Z,17.63
2018-12-22T18:51:40.109Z,11.63
2018-12-22T18:54:08.545Z,11.30
2018-12-22T18:56:37.593Z,7.27
2018-12-22T18:59:06.070Z,8.93
2018-12-22T19:01:34.576Z,10.73
2018-12-22T19:04:03.013Z,10.90
2018-12-22T19:06:32.116Z,9.83
2018-12-22T19:09:01.909Z,8.83
2018-12-22T19:11:31.597Z,11.43
2018-12-22T19:14:03.127Z,11.70
2018-12-22T19:16:31.679Z,10.10
2018-12-22T19:19:00.100Z,9.40
2018-12-22T19:21:28.553Z,10.97
2018-12-22T19:23:56.941Z,10.70
2018-12-22T19:26:25.376Z,12.90
2018-12-22T19:28:53.919Z,13.80
2018-12-22T19:31:22.385Z,11.43
2018-12-22T19:33:53.657Z,12.73
2018-12-22T19:36:21.435Z,12.43
2018-12-22T19:38:49.860Z,16.53
2018-12-22T19:41:18.468Z,14.57
2018-12-22T19:43:46.926Z,14.43
2018-12-22T19:46:15.373Z,17.43
2018-12-22T19:48:43.852Z,14.87
2018-12-22T19:51:12.318Z,14.87
2018-12-22T19:53:53.607Z,15.60
2018-12-22T19:56:22.035Z,19.73
2018-12-22T19:58:50.393Z,12.27
2018-12-22T20:01:18.940Z,15.63
2018-12-22T20:03:47.742Z,12.67
2018-12-22T20:06:16.254Z,16.90
2018-12-22T20:08:44.692Z,14.13
2018-12-22T20:11:13.094Z,16.87
2018-12-22T20:13:41.508Z,17.77
2018-12-22T20:16:09.922Z,23.70
2018-12-22T20:18:38.346Z,18.33
2018-12-22T20:21:06.856Z,18.53
2018-12-22T20:23:35.306Z,16.70
2018-12-22T20:26:03.930Z,19.13
2018-12-22T20:28:32.331Z,19.47
2018-12-22T20:31:00.800Z,21.90
2018-12-22T20:33:29.238Z,23.67
2018-12-22T20:35:57.687Z,27.00
2018-12-22T20:38:26.118Z,26.17
2018-12-22T20:40:54.526Z,26.73
2018-12-22T20:43:23.124Z,26.23
2018-12-22T20:45:51.604Z,28.40
2018-12-22T20:48:20.089Z,32.23
2018-12-22T20:50:48.507Z,33.77
2018-12-22T20:53:16.949Z,40.23
2018-12-22T20:55:45.440Z,53.83
2018-12-22T20:58:13.861Z,52.30
2018-12-22T21:00:42.255Z,45.87
2018-12-22T21:03:10.657Z,51.50
2018-12-22T21:05:44.751Z,50.27
2018-12-22T21:08:13.175Z,45.73
2018-12-22T21:10:41.671Z,46.90
2018-12-22T21:13:10.102Z,41.47
2018-12-22T21:15:39.469Z,39.17
2018-12-22T21:18:07.922Z,37.60
2018-12-22T21:20:36.533Z,36.60
2018-12-22T21:23:05.006Z,42.77
2018-12-22T21:25:33.421Z,39.10
2018-12-22T21:28:01.964Z,29.80
2018-12-22T21:30:30.373Z,28.43
2018-12-22T21:32:58.958Z,33.83
2018-12-22T21:35:27.445Z,28.20
2018-12-22T21:37:55.906Z,27.97
2018-12-22T21:40:24.343Z,37.80
2018-12-22T21:42:52.793Z,37.13
2018-12-22T21:45:21.253Z,30.27
2018-12-22T21:47:49.769Z,32.67
2018-12-22T21:50:18.186Z,31.63
2018-12-22T21:52:46.620Z,37.57
2018-12-22T21:55:15.067Z,30.83
2018-12-22T21:57:43.482Z,29.47
2018-12-22T22:00:12.029Z,27.13
2018-12-22T22:02:40.461Z,20.10
2018-12-22T22:05:08.913Z,20.53
2018-12-22T22:07:37.344Z,20.47
2018-12-22T22:10:06.135Z,19.27
2018-12-22T22:12:34.557Z,19.47
2018-12-22T22:15:03.927Z,20.23
2018-12-22T22:17:32.558Z,21.90
2018-12-22T22:20:00.983Z,19.73
2018-12-22T22:22:29.400Z,22.37
2018-12-22T22:24:57.848Z,23.83
2018-12-22T22:27:26.343Z,25.30
2018-12-22T22:29:54.746Z,27.23
2018-12-22T22:32:23.228Z,26.77
2018-12-22T22:34:51.831Z,24.03
2018-12-22T22:37:20.282Z,23.63
2018-12-22T22:39:48.777Z,28.13
2018-12-22T22:42:17.222Z,36.03
2018-12-22T22:44:45.635Z,32.40
2018-12-22T22:47:14.223Z,37.17
2018-12-22T22:49:42.808Z,51.83
2018-12-22T22:52:11.330Z,43.03
2018-12-22T22:54:39.755Z,51.43
2018-12-22T22:57:08.171Z,48.07
2018-12-22T22:59:37.115Z,55.17
2018-12-22T23:02:05.565Z,56.07
2018-12-22T23:04:34.085Z,55.10
2018-12-22T23:07:02.489Z,61.57
2018-12-22T23:09:31.100Z,66.67
2018-12-22T23:11:59.555Z,73.43
2018-12-22T23:14:28.011Z,85.87
2018-12-22T23:16:56.473Z,81.73
2018-12-22T23:19:25.095Z,84.93
2018-12-22T23:21:53.592Z,77.10
2018-12-22T23:24:22.009Z,73.87
2018-12-22T23:26:50.437Z,81.77
2018-12-22T23:29:18.872Z,63.33
2018-12-22T23:31:47.463Z,71.30
2018-12-22T23:34:15.954Z,63.23
2018-12-22T23:36:44.432Z,78.10
2018-12-22T23:39:13.565Z,65.67
2018-12-22T23:41:42.000Z,69.40
2018-12-22T23:44:10.570Z,82.40
2018-12-22T23:46:39.013Z,63.77
2018-12-22T23:49:07.656Z,75.67
2018-12-22T23:51:36.066Z,58.00
2018-12-22T23:54:04.580Z,62.27
2018-12-22T23:56:33.231Z,48.97
2018-12-22T23:59:01.664Z,50.70
